createdAt,value
2017-05-01T00:00:57.837Z,63.89
2017-05-01T00:02:08.192Z,63.51
2017-05-01T00:03:18.547Z,63.51
2017-05-01T00:04:28.905Z,63.7
2017-05-01T00:05:38.931Z,63.7
2017-05-01T00:06:49.279Z,63.8
2017-05-01T00:07:59.641Z,63.8
2017-05-01T00:09:09.930Z,63.8
2017-05-01T00:10:20.288Z,63.89
2017-05-01T00:11:30.621Z,63.7
2017-05-01T00:12:40.658Z,63.6
2017-05-01T00:13:51.013Z,63.99
2017-05-01T00:15:01.360Z,63.99
2017-05-01T00:16:11.707Z,63.99
2017-05-01T00:17:22.048Z,63.6
2017-05-01T00:18:32.409Z,63.89
2017-05-01T00:19:42.748Z,63.8
2017-05-01T00:20:53.098Z,63.89
2017-05-01T00:22:03.442Z,63.89
2017-05-01T00:23:13.777Z,63.42
2017-05-01T00:24:24.124Z,63.23
2017-05-01T00:25:34.523Z,63.6
2017-05-01T00:26:44.864Z,63.42
2017-05-01T00:27:54.898Z,63.51
2017-05-01T00:29:05.241Z,63.32
2017-05-01T00:30:15.582Z,63.42
2017-05-01T00:31:25.645Z,63.32
2017-05-01T00:32:35.985Z,63.32
2017-05-01T00:33:46.354Z,63.7
2017-05-01T00:34:56.393Z,64.09
2017-05-01T00:36:06.742Z,63.7
2017-05-01T00:37:16.767Z,63.7
2017-05-01T00:38:26.797Z,63.7
2017-05-01T00:39:36.832Z,63.89
2017-05-01T00:40:47.172Z,63.89
2017-05-01T00:41:57.196Z,63.99
2017-05-01T00:43:07.262Z,63.42
2017-05-01T00:44:16.985Z,63.6
2017-05-01T00:45:27.025Z,63.51
2017-05-01T00:46:37.378Z,63.8
2017-05-01T00:47:47.722Z,63.8
2017-05-01T00:48:57.750Z,63.7
2017-05-01T00:50:07.801Z,63.51
2017-05-01T00:51:18.144Z,63.89
2017-05-01T00:52:28.489Z,63.7
2017-05-01T00:53:38.824Z,64.12
2017-05-01T00:54:48.843Z,63.89
2017-05-01T00:55:59.202Z,63.8
2017-05-01T00:57:09.557Z,63.93
2017-05-01T00:58:19.584Z,63.73
2017-05-01T00:59:29.932Z,63.93
2017-05-01T01:00:40.259Z,63.83
2017-05-01T01:01:50.609Z,63.7
2017-05-01T01:03:00.638Z,63.93
2017-05-01T01:04:10.999Z,63.73
2017-05-01T01:05:21.354Z,64.12
2017-05-01T01:06:31.377Z,63.54
2017-05-01T01:07:41.399Z,63.99
2017-05-01T01:08:51.440Z,63.8
2017-05-01T01:10:01.781Z,63.93
2017-05-01T01:11:12.134Z,63.99
2017-05-01T01:12:22.511Z,63.89
2017-05-01T01:13:32.538Z,63.99
2017-05-01T01:14:42.564Z,63.89
2017-05-01T01:15:52.921Z,63.89
2017-05-01T01:17:03.264Z,63.89
2017-05-01T01:18:13.648Z,63.51
2017-05-01T01:19:23.711Z,63.7
2017-05-01T01:20:33.746Z,63.99
2017-05-01T01:21:44.080Z,63.99
2017-05-01T01:22:53.811Z,63.89
2017-05-01T01:24:04.159Z,63.7
2017-05-01T01:25:14.504Z,63.73
2017-05-01T01:26:24.539Z,63.7
2017-05-01T01:27:34.873Z,63.73
2017-05-01T01:28:45.225Z,63.51
2017-05-01T01:29:55.573Z,63.7
2017-05-01T01:31:05.916Z,63.7
2017-05-01T01:32:16.261Z,63.7
2017-05-01T01:33:26.616Z,63.89
2017-05-01T01:34:36.960Z,63.8
2017-05-01T01:35:47.293Z,63.89
2017-05-01T01:36:57.626Z,63.83
2017-05-01T01:38:07.974Z,63.51
2017-05-01T01:39:18.321Z,63.7
2017-05-01T01:40:28.665Z,63.8
2017-05-01T01:41:39.004Z,63.99
2017-05-01T01:42:49.332Z,63.99
2017-05-01T01:43:59.932Z,63.99
2017-05-01T01:45:10.278Z,63.99
2017-05-01T01:46:20.295Z,63.99
2017-05-01T01:47:30.655Z,63.99
2017-05-01T01:48:41.007Z,63.89
2017-05-01T01:49:51.031Z,63.99
2017-05-01T01:51:01.381Z,63.89
2017-05-01T01:52:11.726Z,63.99
2017-05-01T01:53:21.789Z,63.99
2017-05-01T01:54:32.137Z,64.09
2017-05-01T01:55:42.168Z,63.89
2017-05-01T01:56:52.515Z,63.89
2017-05-01T01:58:02.843Z,63.89
2017-05-01T01:59:12.868Z,63.99
2017-05-01T02:00:23.230Z,63.99
2017-05-01T02:01:32.945Z,63.89
2017-05-01T02:02:42.970Z,63.89
2017-05-01T02:03:53.001Z,63.8
2017-05-01T02:05:03.411Z,63.7
2017-05-01T02:06:13.748Z,63.99
2017-05-01T02:07:23.780Z,63.7
2017-05-01T02:08:34.123Z,63.51
2017-05-01T02:09:43.858Z,63.8
2017-05-01T02:10:54.195Z,63.89
2017-05-01T02:12:04.575Z,63.7
2017-05-01T02:13:14.920Z,63.7
2017-05-01T02:14:25.268Z,63.89
2017-05-01T02:15:35.606Z,63.51
2017-05-01T02:16:45.959Z,63.89
2017-05-01T02:17:56.311Z,63.7
2017-05-01T02:19:06.354Z,63.89
2017-05-01T02:20:16.390Z,63.51
2017-05-01T02:21:26.411Z,64.09
2017-05-01T02:22:36.476Z,63.51
2017-05-01T02:23:46.810Z,63.89
2017-05-01T02:24:56.833Z,63.8
2017-05-01T02:26:06.910Z,63.8
2017-05-01T02:27:16.932Z,63.89
2017-05-01T02:28:27.280Z,63.99
2017-05-01T02:29:37.622Z,63.89
2017-05-01T02:30:47.956Z,63.8
2017-05-01T02:31:58.377Z,63.7
2017-05-01T02:33:08.397Z,63.51
2017-05-01T02:34:18.439Z,63.7
2017-05-01T02:35:28.778Z,63.99
2017-05-01T02:36:39.157Z,63.89
2017-05-01T02:37:49.188Z,63.7
2017-05-01T02:38:59.243Z,63.42
2017-05-01T02:40:09.273Z,63.42
2017-05-01T02:41:19.603Z,63.7
2017-05-01T02:42:29.626Z,63.6
2017-05-01T02:43:39.348Z,63.6
2017-05-01T02:44:49.384Z,63.7
2017-05-01T02:45:59.124Z,63.8
2017-05-01T02:47:09.155Z,63.7
2017-05-01T02:48:19.510Z,63.7
2017-05-01T02:49:29.856Z,63.7
2017-05-01T02:50:39.579Z,63.7
2017-05-01T02:51:49.626Z,63.6
2017-05-01T02:52:59.956Z,63.6
2017-05-01T02:54:10.316Z,63.42
2017-05-01T02:55:20.662Z,63.42
2017-05-01T02:56:31.003Z,63.6
2017-05-01T02:57:41.393Z,63.8
2017-05-01T02:58:51.751Z,63.51
2017-05-01T03:00:02.118Z,63.7
2017-05-01T03:01:12.139Z,63.6
2017-05-01T03:32:46.075Z,60.4
2017-05-01T03:33:56.408Z,61.64
2017-05-01T03:35:06.740Z,62.02
2017-05-01T03:36:16.994Z,62.97
2017-05-01T03:37:27.340Z,63.07
2017-05-01T03:38:37.918Z,63.83
2017-05-01T03:39:49.123Z,63.76
2017-05-01T03:40:59.897Z,64.43
2017-05-01T03:42:09.298Z,63.76
2017-05-01T03:43:19.881Z,64.05
2017-05-01T03:44:31.096Z,64.18
2017-05-01T03:45:41.917Z,64.18
2017-05-01T03:46:52.286Z,64.09
2017-05-01T03:48:02.310Z,64.28
2017-05-01T03:49:12.653Z,64.12
2017-05-01T03:50:23.280Z,64.4
2017-05-01T03:51:33.834Z,64.31
2017-05-01T03:52:43.846Z,64.21
2017-05-01T03:53:54.196Z,64.31
2017-05-01T03:55:04.538Z,64.31
2017-05-01T03:56:14.569Z,64.15
2017-05-01T03:57:24.946Z,63.76
2017-05-01T03:58:35.290Z,63.86
2017-05-01T03:59:45.665Z,63.86
2017-05-01T04:00:56.238Z,63.76
2017-05-01T04:02:06.608Z,63.67
2017-05-01T04:03:17.186Z,63.96
2017-05-01T04:04:27.522Z,63.67
2017-05-01T04:05:37.855Z,63.76
2017-05-01T04:06:47.880Z,63.67
2017-05-01T04:07:57.633Z,63.99
2017-05-01T04:09:07.987Z,63.99
2017-05-01T04:10:18.317Z,63.76
2017-05-01T04:11:28.337Z,63.7
2017-05-01T04:12:38.371Z,63.89
2017-05-01T04:13:48.726Z,63.76
2017-05-01T04:14:59.082Z,63.6
2017-05-01T04:16:09.119Z,63.32
2017-05-01T04:17:19.450Z,63.51
2017-05-01T04:18:29.783Z,63.42
2017-05-01T04:19:40.204Z,63.32
2017-05-01T04:20:50.540Z,63.32
2017-05-01T04:22:00.567Z,63.23
2017-05-01T04:23:10.897Z,63.8
2017-05-01T04:24:21.262Z,63.6
2017-05-01T04:25:31.607Z,63.51
2017-05-01T04:26:41.984Z,63.32
2017-05-01T04:27:52.327Z,63.32
2017-05-01T04:29:02.673Z,63.13
2017-05-01T04:30:13.030Z,62.94
2017-05-01T04:31:23.416Z,63.26
2017-05-01T04:32:33.131Z,63.03
2017-05-01T04:33:43.461Z,63.03
2017-05-01T04:34:53.801Z,63.03
2017-05-01T04:36:04.133Z,62.97
2017-05-01T04:37:14.162Z,62.68
2017-05-01T04:38:24.197Z,62.78
2017-05-01T04:39:34.540Z,62.97
2017-05-01T04:40:44.875Z,63.07
2017-05-01T04:41:55.212Z,63.16
2017-05-01T04:43:04.931Z,63.07
2017-05-01T04:44:15.000Z,63.16
2017-05-01T04:45:25.339Z,63.16
2017-05-01T04:46:35.675Z,63.26
2017-05-01T04:47:46.026Z,63.26
2017-05-01T04:48:56.408Z,63.26
2017-05-01T04:50:06.739Z,63.07
2017-05-01T04:51:16.778Z,63.16
2017-05-01T04:52:26.825Z,63.26
2017-05-01T04:53:37.170Z,63.16
2017-05-01T04:54:47.198Z,63.16
2017-05-01T04:55:57.539Z,63.07
2017-05-01T04:57:07.901Z,63.16
2017-05-01T04:58:18.251Z,63.26
2017-05-01T04:59:28.624Z,63.07
2017-05-01T05:00:38.969Z,63.26
2017-05-01T05:01:49.311Z,63.16
2017-05-01T05:02:59.033Z,63.16
2017-05-01T05:04:09.370Z,63.26
2017-05-01T05:05:19.402Z,62.97
2017-05-01T05:06:29.752Z,62.97
2017-05-01T05:07:40.144Z,62.78
2017-05-01T05:08:50.492Z,63.1
2017-05-01T05:10:00.852Z,63.1
2017-05-01T05:11:11.201Z,62.81
2017-05-01T05:12:21.587Z,62.33
2017-05-01T05:13:31.930Z,62.24
2017-05-01T05:14:42.271Z,62.52
2017-05-01T05:15:52.616Z,62.52
2017-05-01T05:17:02.998Z,62.71
2017-05-01T05:18:13.335Z,62.43
2017-05-01T05:19:23.361Z,62.14
2017-05-01T05:20:33.705Z,61.95
2017-05-01T05:21:44.050Z,61.85
2017-05-01T05:22:54.417Z,61.85
2017-05-01T05:24:04.463Z,61.98
2017-05-01T05:25:14.816Z,62.08
2017-05-01T05:26:24.842Z,62.08
2017-05-01T05:27:35.199Z,62.17
2017-05-01T05:28:44.931Z,61.98
2017-05-01T05:29:54.953Z,61.98
2017-05-01T05:31:05.304Z,61.88
2017-05-01T05:32:15.661Z,61.98
2017-05-01T05:33:25.685Z,62.27
2017-05-01T05:34:35.411Z,62.08
2017-05-01T05:35:45.130Z,62.17
2017-05-01T05:36:55.467Z,62.17
2017-05-01T05:38:05.805Z,61.98
2017-05-01T05:39:16.140Z,62.17
2017-05-01T05:40:26.494Z,61.79
2017-05-01T05:41:36.826Z,61.79
2017-05-01T05:42:47.190Z,62.27
2017-05-01T05:43:57.536Z,62.08
2017-05-01T05:45:07.596Z,62.17
2017-05-01T05:46:17.621Z,61.79
2017-05-01T05:47:27.648Z,61.98
2017-05-01T05:48:37.995Z,62.17
2017-05-01T05:49:48.341Z,62.17
2017-05-01T05:50:58.685Z,62.37
2017-05-01T05:52:08.715Z,61.82
2017-05-01T05:53:18.728Z,62.3
2017-05-01T05:54:29.075Z,61.72
2017-05-01T05:55:39.121Z,61.54
2017-05-01T05:56:49.734Z,61.72
2017-05-01T05:57:59.783Z,61.91
2017-05-01T05:59:10.146Z,61.72
2017-05-01T06:00:20.496Z,61.91
2017-05-01T06:01:30.879Z,61.44
2017-05-01T06:02:40.905Z,61.34
2017-05-01T06:03:51.255Z,61.47
2017-05-01T06:05:01.617Z,61.47
2017-05-01T06:06:11.982Z,61.57
2017-05-01T06:07:22.334Z,61.47
2017-05-01T06:08:32.688Z,61.47
2017-05-01T06:09:43.061Z,61.47
2017-05-01T06:10:52.786Z,61.47
2017-05-01T06:12:02.835Z,61.47
2017-05-01T06:13:12.881Z,61.37
2017-05-01T06:14:23.850Z,61.28
2017-05-01T06:15:34.199Z,61.18
2017-05-01T06:16:44.555Z,61.47
2017-05-01T06:17:54.925Z,61.57
2017-05-01T06:19:19.861Z,61.47
2017-05-01T06:20:29.967Z,60.99
2017-05-01T06:21:40.329Z,61.11
2017-05-01T06:22:50.049Z,61.02
2017-05-01T06:24:00.412Z,60.93
2017-05-01T06:25:10.143Z,60.44
2017-05-01T06:26:20.497Z,60.54
2017-05-01T06:27:30.550Z,60.73
2017-05-01T06:28:40.908Z,60.73
2017-05-01T06:29:51.265Z,60.47
2017-05-01T06:31:01.303Z,60.96
2017-05-01T06:32:11.669Z,60.76
2017-05-01T06:33:22.031Z,60.86
2017-05-01T06:34:32.387Z,60.57
2017-05-01T06:35:42.429Z,60.22
2017-05-01T06:36:52.770Z,60.22
2017-05-01T06:38:02.815Z,60.5
2017-05-01T06:39:13.164Z,60.79
2017-05-01T06:40:22.922Z,60.41
2017-05-01T06:41:33.270Z,60.72
2017-05-01T06:42:43.623Z,60.44
2017-05-01T06:43:54.228Z,60.15
2017-05-01T06:45:04.606Z,60.63
2017-05-01T06:46:14.968Z,60.05
2017-05-01T06:47:25.329Z,60.05
2017-05-01T06:48:35.687Z,60.08
2017-05-01T06:49:45.725Z,60.28
2017-05-01T06:50:56.077Z,60.08
2017-05-01T06:52:06.423Z,60.08
2017-05-01T06:53:16.797Z,59.8
2017-05-01T06:54:26.840Z,60.11
2017-05-01T06:55:37.197Z,60.4
2017-05-01T06:56:47.255Z,59.92
2017-05-01T06:57:57.301Z,59.66
2017-05-01T06:59:07.653Z,59.38
2017-05-01T07:00:18.052Z,59.76
2017-05-01T07:01:28.091Z,59.57
2017-05-01T07:02:38.125Z,59.09
2017-05-01T07:03:48.500Z,59.28
2017-05-01T07:04:58.883Z,59.22
2017-05-01T07:06:08.930Z,58.83
2017-05-01T07:07:19.266Z,59.22
2017-05-01T07:08:28.996Z,59.69
2017-05-01T07:09:39.345Z,59.41
2017-05-01T07:10:49.386Z,59.6
2017-05-01T07:11:59.428Z,59.63
2017-05-01T07:13:09.773Z,59.44
2017-05-01T07:14:20.124Z,60.01
2017-05-01T07:15:30.467Z,59.92
2017-05-01T07:16:40.841Z,59.82
2017-05-01T07:17:51.200Z,59.92
2017-05-01T07:19:01.602Z,60.01
2017-05-01T07:20:11.954Z,60.01
2017-05-01T07:21:22.339Z,60.39
2017-05-01T07:22:32.384Z,59.63
2017-05-01T07:23:42.726Z,59.53
2017-05-01T07:24:53.083Z,60.21
2017-05-01T07:26:03.461Z,60.01
2017-05-01T07:27:13.804Z,59.72
2017-05-01T07:28:23.839Z,60.01
2017-05-01T07:29:33.886Z,60.01
2017-05-01T07:30:44.257Z,59.47
2017-05-01T07:31:54.627Z,59.56
2017-05-01T07:33:04.363Z,59.08
2017-05-01T07:34:14.392Z,59.27
2017-05-01T07:35:24.468Z,59.4
2017-05-01T07:36:34.502Z,59.3
2017-05-01T07:37:44.858Z,59.59
2017-05-01T07:38:55.209Z,58.92
2017-05-01T07:40:05.564Z,58.85
2017-05-01T07:41:15.648Z,59.04
2017-05-01T07:42:26.004Z,59.52
2017-05-01T07:43:36.351Z,59.43
2017-05-01T07:44:46.712Z,59.23
2017-05-01T07:45:57.087Z,59.14
2017-05-01T07:47:07.453Z,59.27
2017-05-01T07:48:17.800Z,59.27
2017-05-01T07:49:27.524Z,59.45
2017-05-01T07:50:37.642Z,59.27
2017-05-01T07:51:48.005Z,59.17
2017-05-01T07:52:58.048Z,58.69
2017-05-01T07:54:08.404Z,59.1
2017-05-01T07:55:18.767Z,59
2017-05-01T07:56:29.124Z,58.52
2017-05-01T07:57:39.480Z,58.65
2017-05-01T07:58:49.573Z,58.26
2017-05-01T07:59:59.623Z,58.75
2017-05-01T08:01:09.649Z,58.36
2017-05-01T08:02:20.007Z,58.17
2017-05-01T08:03:30.350Z,58.55
2017-05-01T08:04:40.726Z,58.1
2017-05-01T08:05:51.093Z,58.48
2017-05-01T08:07:01.474Z,58.68
2017-05-01T08:08:11.816Z,58.87
2017-05-01T08:09:22.188Z,58.68
2017-05-01T08:10:31.961Z,59.06
2017-05-01T08:11:42.350Z,59.16
2017-05-01T08:12:52.702Z,59.16
2017-05-01T08:14:03.070Z,59.16
2017-05-01T08:15:13.421Z,58.87
2017-05-01T08:16:23.189Z,58.87
2017-05-01T08:17:33.231Z,58.87
2017-05-01T08:18:43.601Z,58.77
2017-05-01T08:19:53.987Z,58.1
2017-05-01T08:21:04.030Z,58.1
2017-05-01T08:22:14.391Z,58.12
2017-05-01T08:23:24.748Z,58.22
2017-05-01T08:24:34.791Z,58.32
2017-05-01T08:25:45.169Z,58.61
2017-05-01T08:26:55.220Z,58.51
2017-05-01T08:28:05.553Z,58.12
2017-05-01T08:29:15.944Z,58.06
2017-05-01T08:30:26.311Z,57.57
2017-05-01T08:31:36.657Z,57.99
2017-05-01T08:32:46.713Z,57.89
2017-05-01T08:33:57.070Z,57.77
2017-05-01T08:35:07.436Z,58.28
2017-05-01T08:36:17.482Z,57.96
2017-05-01T08:37:27.578Z,57.87
2017-05-01T08:38:37.641Z,58.35
2017-05-01T08:39:48.071Z,58.35
2017-05-01T08:40:58.420Z,58.37
2017-05-01T08:42:08.780Z,57.99
2017-05-01T08:43:18.831Z,58.18
2017-05-01T08:44:29.229Z,58.28
2017-05-01T08:45:39.614Z,57.99
2017-05-01T08:46:49.976Z,57.7
2017-05-01T08:48:00.341Z,57.89
2017-05-01T08:49:10.752Z,58.09
2017-05-01T08:50:21.166Z,57.89
2017-05-01T08:51:31.578Z,58.09
2017-05-01T08:52:41.660Z,57.79
2017-05-01T08:53:52.088Z,57.99
2017-05-01T08:55:02.487Z,58.02
2017-05-01T08:56:12.899Z,57.92
2017-05-01T08:57:22.978Z,57.82
2017-05-01T08:58:33.087Z,58.02
2017-05-01T08:59:43.485Z,58.02
2017-05-01T09:00:53.840Z,57.82
2017-05-01T09:02:04.195Z,57.44
2017-05-01T09:03:14.580Z,57.44
2017-05-01T09:04:24.953Z,57.56
2017-05-01T09:05:35.298Z,57.82
2017-05-01T09:06:45.654Z,58.12
2017-05-01T09:07:56.015Z,58.28
2017-05-01T09:09:06.374Z,58.93
2017-05-01T09:10:16.775Z,58.73
2017-05-01T09:11:27.160Z,59
2017-05-01T09:12:37.526Z,59.12
2017-05-01T09:13:47.878Z,58.25
2017-05-01T09:14:58.243Z,58.06
2017-05-01T09:16:08.284Z,58.28
2017-05-01T09:17:18.663Z,58.28
2017-05-01T09:18:29.024Z,57.89
2017-05-01T09:19:39.366Z,57.79
2017-05-01T09:20:49.949Z,58.18
2017-05-01T09:22:00.305Z,58.37
2017-05-01T09:23:10.361Z,58.35
2017-05-01T09:24:20.709Z,59.02
2017-05-01T09:25:31.068Z,59.12
2017-05-01T09:26:41.425Z,58.61
2017-05-01T09:27:51.783Z,59.28
2017-05-01T09:29:02.147Z,59.58
2017-05-01T09:30:12.498Z,59.64
2017-05-01T09:31:22.844Z,59.45
2017-05-01T09:32:32.895Z,58.87
2017-05-01T09:33:43.293Z,58.87
2017-05-01T09:34:53.676Z,58.42
2017-05-01T09:36:04.030Z,58.42
2017-05-01T09:37:14.400Z,58.61
2017-05-01T09:38:24.755Z,59
2017-05-01T09:39:35.131Z,58.58
2017-05-01T09:40:45.492Z,59.45
2017-05-01T09:41:55.849Z,59.35
2017-05-01T09:43:06.213Z,59.16
2017-05-01T09:44:16.562Z,59.74
2017-05-01T09:45:26.615Z,59.42
2017-05-01T09:46:36.651Z,59.42
2017-05-01T09:47:46.436Z,59.42
2017-05-01T09:48:56.509Z,59.52
2017-05-01T09:50:06.845Z,60.19
2017-05-01T09:51:17.210Z,60.19
2017-05-01T09:52:27.244Z,60.1
2017-05-01T09:53:37.596Z,60.19
2017-05-01T09:54:47.341Z,60.1
2017-05-01T09:55:57.764Z,59.9
2017-05-01T09:57:08.109Z,60.1
2017-05-01T09:58:17.820Z,60.48
2017-05-01T09:59:27.876Z,60.48
2017-05-01T10:00:37.631Z,60.16
2017-05-01T10:01:47.991Z,60.68
2017-05-01T10:02:58.342Z,60.74
2017-05-01T10:04:08.710Z,60.19
2017-05-01T10:05:19.077Z,60
2017-05-01T10:06:29.110Z,59.42
2017-05-01T10:07:39.463Z,60
2017-05-01T10:08:49.833Z,59.42
2017-05-01T10:09:59.879Z,60
2017-05-01T10:11:10.246Z,60
2017-05-01T10:12:20.613Z,60
2017-05-01T10:13:30.987Z,59.93
2017-05-01T10:14:40.751Z,60.19
2017-05-01T10:15:50.793Z,60.28
2017-05-01T10:17:01.152Z,60
2017-05-01T10:18:11.207Z,60.28
2017-05-01T10:19:21.254Z,60.19
2017-05-01T10:20:31.616Z,60.19
2017-05-01T10:21:41.992Z,60.19
2017-05-01T10:22:52.474Z,60.51
2017-05-01T10:24:03.255Z,60.13
2017-05-01T10:25:13.616Z,60.03
2017-05-01T10:26:23.998Z,60.31
2017-05-01T10:27:33.730Z,60.1
2017-05-01T10:28:44.117Z,60.03
2017-05-01T10:29:54.467Z,60.13
2017-05-01T10:31:04.218Z,59.83
2017-05-01T10:32:14.590Z,59.86
2017-05-01T10:33:24.632Z,59.58
2017-05-01T10:34:35.001Z,59
2017-05-01T10:35:44.734Z,59.22
2017-05-01T10:36:55.079Z,58.67
2017-05-01T10:38:05.435Z,58.37
2017-05-01T10:39:15.803Z,58.31
2017-05-01T10:40:26.385Z,59.08
2017-05-01T10:41:36.770Z,59.25
2017-05-01T10:42:47.132Z,59.05
2017-05-01T10:43:57.499Z,59.15
2017-05-01T10:45:07.847Z,59.08
2017-05-01T10:46:18.227Z,58.8
2017-05-01T10:47:28.588Z,58.89
2017-05-01T10:48:38.991Z,58.7
2017-05-01T10:49:49.395Z,59.08
2017-05-01T10:50:59.788Z,59.47
2017-05-01T10:52:10.237Z,59.92
2017-05-01T10:53:20.031Z,60.41
2017-05-01T10:54:30.442Z,59.44
2017-05-01T10:55:40.486Z,59.66
2017-05-01T10:56:50.863Z,59.18
2017-05-01T10:58:01.244Z,58.82
2017-05-01T10:59:11.664Z,58.72
2017-05-01T11:00:22.035Z,59.11
2017-05-01T11:01:32.398Z,59.59
2017-05-01T11:02:42.764Z,59.56
2017-05-01T11:03:52.816Z,59.11
2017-05-01T11:05:03.190Z,59.11
2017-05-01T11:06:13.606Z,58.04
2017-05-01T11:07:24.003Z,58.27
2017-05-01T11:08:34.369Z,58.47
2017-05-01T11:09:44.749Z,58.37
2017-05-01T11:10:54.840Z,58.65
2017-05-01T11:12:05.247Z,58.37
2017-05-01T11:13:15.608Z,58.49
2017-05-01T11:14:25.989Z,57.98
2017-05-01T11:15:36.375Z,59.14
2017-05-01T11:16:46.811Z,58.27
2017-05-01T11:17:56.910Z,59.23
2017-05-01T11:19:06.989Z,59.79
2017-05-01T11:20:17.368Z,59.4
2017-05-01T11:21:27.752Z,59.5
2017-05-01T11:22:37.833Z,59.76
2017-05-01T11:23:48.220Z,59.4
2017-05-01T11:24:58.626Z,59.21
2017-05-01T11:26:09.005Z,58.72
2017-05-01T11:27:18.729Z,59.59
2017-05-01T11:28:29.102Z,60.11
2017-05-01T11:29:39.192Z,59.53
2017-05-01T11:30:49.253Z,58.6
2017-05-01T11:31:59.626Z,58.63
2017-05-01T11:33:09.989Z,59.4
2017-05-01T11:34:20.366Z,60.34
2017-05-01T11:35:30.745Z,60.76
2017-05-01T11:36:40.815Z,60.96
2017-05-01T11:37:51.198Z,60.18
2017-05-01T11:39:01.261Z,60.47
2017-05-01T11:40:11.315Z,60.09
2017-05-01T11:41:21.715Z,58.95
2017-05-01T11:42:31.458Z,58.04
2017-05-01T11:43:41.530Z,57.3
2017-05-01T11:44:51.905Z,57.43
2017-05-01T11:46:02.297Z,58.27
2017-05-01T11:47:12.725Z,58.85
2017-05-01T11:48:23.089Z,59.11
2017-05-01T11:49:33.458Z,58.98
2017-05-01T11:50:43.830Z,59.38
2017-05-01T11:51:54.442Z,60.31
2017-05-01T11:53:04.808Z,60.11
2017-05-01T11:54:15.189Z,60.57
2017-05-01T11:55:25.561Z,59.41
2017-05-01T11:56:35.934Z,58.5
2017-05-01T11:57:46.319Z,58.31
2017-05-01T11:58:56.373Z,58.63
2017-05-01T12:00:06.739Z,58.31
2017-05-01T12:01:17.339Z,57.95
2017-05-01T12:02:27.717Z,58.34
2017-05-01T12:03:38.123Z,59.11
2017-05-01T12:04:48.501Z,58.02
2017-05-01T12:05:58.865Z,57.98
2017-05-01T12:07:09.230Z,57.69
2017-05-01T12:08:19.589Z,57.53
2017-05-01T12:09:29.972Z,56.97
2017-05-01T12:10:40.351Z,57.19
2017-05-01T12:11:50.708Z,57.97
2017-05-01T12:13:00.772Z,57.58
2017-05-01T12:14:10.531Z,58.36
2017-05-01T12:15:20.891Z,57.94
2017-05-01T12:16:31.259Z,58.62
2017-05-01T12:17:41.642Z,58.33
2017-05-01T12:18:51.086Z,58.33
2017-05-01T12:20:01.160Z,59.59
2017-05-01T12:21:11.544Z,60.24
2017-05-01T12:22:21.617Z,60.69
2017-05-01T12:23:31.653Z,60.66
2017-05-01T12:24:41.708Z,60.27
2017-05-01T12:25:52.077Z,59.98
2017-05-01T12:27:02.443Z,60.47
2017-05-01T12:28:12.817Z,60.14
2017-05-01T12:29:23.192Z,60.44
2017-05-01T12:30:33.289Z,60.31
2017-05-01T12:31:43.652Z,60.31
2017-05-01T12:32:53.999Z,59.66
2017-05-01T12:34:04.401Z,59.31
2017-05-01T12:35:14.446Z,59.79
2017-05-01T12:36:24.500Z,60.82
2017-05-01T12:37:34.569Z,60.5
2017-05-01T12:38:44.655Z,60.38
2017-05-01T12:39:55.099Z,59.63
2017-05-01T12:41:05.491Z,59.47
2017-05-01T12:42:15.848Z,59.86
2017-05-01T12:43:26.210Z,60.14
2017-05-01T12:44:36.564Z,59.44
2017-05-01T12:45:46.618Z,59.11
2017-05-01T12:46:56.994Z,58.14
2017-05-01T12:48:06.759Z,58.69
2017-05-01T12:49:16.822Z,58.65
2017-05-01T12:50:27.178Z,58.17
2017-05-01T12:51:37.245Z,58.98
2017-05-01T12:52:47.314Z,59.11
2017-05-01T12:53:57.706Z,58.47
2017-05-01T12:55:08.073Z,58.65
2017-05-01T12:56:18.115Z,59.23
2017-05-01T12:57:28.486Z,59.23
2017-05-01T12:58:38.550Z,58.75
2017-05-01T12:59:48.642Z,59.14
2017-05-01T13:00:58.739Z,60.21
2017-05-01T13:02:08.801Z,60.92
2017-05-01T13:03:18.853Z,60.89
2017-05-01T13:04:29.237Z,60.67
2017-05-01T13:05:39.302Z,60.76
2017-05-01T13:06:49.695Z,60.76
2017-05-01T13:08:00.076Z,61.25
2017-05-01T13:09:10.455Z,60.64
2017-05-01T13:10:20.825Z,60.76
2017-05-01T13:11:31.189Z,61.02
2017-05-01T13:12:40.925Z,60.73
2017-05-01T13:13:51.301Z,61.12
2017-05-01T13:15:01.694Z,60.35
2017-05-01T13:16:12.070Z,60.28
2017-05-01T13:17:22.482Z,59.92
2017-05-01T13:18:32.578Z,59.53
2017-05-01T13:19:42.948Z,59.73
2017-05-01T13:20:52.993Z,59.66
2017-05-01T13:22:03.371Z,59.28
2017-05-01T13:23:13.452Z,59.95
2017-05-01T13:24:23.510Z,60.24
2017-05-01T13:25:33.883Z,60.41
2017-05-01T13:26:44.271Z,60.41
2017-05-01T13:27:54.661Z,59.47
2017-05-01T13:29:05.087Z,59.47
2017-05-01T13:30:15.461Z,59.69
2017-05-01T13:31:25.838Z,59.59
2017-05-01T13:32:36.272Z,59.79
2017-05-01T13:33:46.650Z,59.76
2017-05-01T13:34:57.012Z,59.95
2017-05-01T13:36:07.066Z,59.95
2017-05-01T13:37:17.435Z,59.47
2017-05-01T13:38:27.814Z,60.24
2017-05-01T13:39:37.886Z,59.76
2017-05-01T13:40:47.968Z,60.24
2017-05-01T13:41:58.036Z,60.44
2017-05-01T13:43:08.111Z,59.83
2017-05-01T13:44:18.499Z,60.6
2017-05-01T13:45:28.866Z,61.05
2017-05-01T13:46:39.246Z,60.57
2017-05-01T13:47:49.613Z,60.5
2017-05-01T13:48:59.981Z,60.82
2017-05-01T13:50:10.362Z,60.6
2017-05-01T13:51:20.744Z,60.5
2017-05-01T13:52:31.108Z,60.21
2017-05-01T13:53:41.489Z,59.47
2017-05-01T13:54:51.856Z,59.98
2017-05-01T13:56:02.264Z,60.34
2017-05-01T13:57:12.299Z,60.44
2017-05-01T13:58:22.644Z,60.6
2017-05-01T13:59:33.025Z,60.5
2017-05-01T14:00:43.403Z,60.41
2017-05-01T14:01:53.784Z,59.56
2017-05-01T14:03:04.144Z,59.47
2017-05-01T14:04:14.503Z,59.5
2017-05-01T14:05:24.862Z,59.4
2017-05-01T14:06:35.281Z,58.92
2017-05-01T14:07:45.638Z,59.14
2017-05-01T14:08:56.009Z,59.11
2017-05-01T14:10:06.054Z,59.11
2017-05-01T14:11:16.411Z,59.33
2017-05-01T14:12:26.464Z,58.95
2017-05-01T14:13:36.854Z,59.14
2017-05-01T14:14:47.210Z,59.82
2017-05-01T14:15:57.581Z,59.72
2017-05-01T14:17:07.968Z,60.27
2017-05-01T14:18:18.059Z,60.95
2017-05-01T14:19:28.505Z,60.72
2017-05-01T14:20:38.892Z,60.69
2017-05-01T14:21:48.948Z,61.08
2017-05-01T14:22:59.327Z,60.86
2017-05-01T14:24:09.714Z,60.86
2017-05-01T14:25:19.765Z,60.86
2017-05-01T14:26:30.160Z,61.25
2017-05-01T14:27:40.536Z,61.05
2017-05-01T14:28:50.894Z,61.25
2017-05-01T14:30:01.263Z,60.86
2017-05-01T14:31:11.671Z,60.67
2017-05-01T14:32:22.079Z,60.96
2017-05-01T14:33:32.131Z,60.57
2017-05-01T14:34:42.180Z,61.44
2017-05-01T14:35:52.573Z,61.31
2017-05-01T14:37:02.943Z,61.31
2017-05-01T14:38:13.300Z,60.93
2017-05-01T14:39:23.694Z,60.83
2017-05-01T14:40:34.065Z,60.57
2017-05-01T14:41:44.427Z,60.47
2017-05-01T14:42:54.811Z,60.67
2017-05-01T14:44:05.174Z,60.21
2017-05-01T14:45:15.217Z,60.31
2017-05-01T14:46:25.276Z,60.34
2017-05-01T14:47:35.630Z,59.95
2017-05-01T14:48:45.685Z,59.76
2017-05-01T14:49:56.071Z,59.59
2017-05-01T14:51:06.122Z,59.69
2017-05-01T14:52:16.166Z,59.5
2017-05-01T14:53:26.557Z,59.59
2017-05-01T14:54:36.928Z,59.5
2017-05-01T14:55:46.977Z,59.5
2017-05-01T14:56:57.333Z,59.69
2017-05-01T14:58:07.411Z,59.69
2017-05-01T14:59:17.822Z,59.43
2017-05-01T15:00:27.552Z,59.82
2017-05-01T15:01:37.948Z,60.57
2017-05-01T15:02:48.320Z,60.17
2017-05-01T15:03:58.387Z,60.47
2017-05-01T15:05:08.763Z,60.37
2017-05-01T15:06:18.818Z,60.53
2017-05-01T15:07:29.190Z,60.44
2017-05-01T15:08:39.256Z,61.11
2017-05-01T15:09:49.652Z,60.89
2017-05-01T15:11:00.051Z,61.08
2017-05-01T15:12:10.109Z,60.89
2017-05-01T15:13:20.493Z,60.67
2017-05-01T15:14:30.880Z,60.67
2017-05-01T15:15:41.248Z,60.86
2017-05-01T15:16:51.686Z,60.76
2017-05-01T15:18:01.423Z,60.96
2017-05-01T15:19:11.501Z,61.15
2017-05-01T15:20:21.920Z,60.76
2017-05-01T15:21:31.974Z,61.25
2017-05-01T15:22:42.030Z,60.38
2017-05-01T15:23:52.415Z,60.41
2017-05-01T15:25:02.804Z,60.79
2017-05-01T15:26:12.856Z,61.08
2017-05-01T15:27:23.236Z,60.5
2017-05-01T15:28:33.320Z,61.18
2017-05-01T15:29:43.380Z,60.96
2017-05-01T15:30:53.761Z,60.67
2017-05-01T15:32:04.158Z,60.86
2017-05-01T15:33:14.576Z,60.47
2017-05-01T15:34:24.685Z,60.99
2017-05-01T15:35:34.797Z,60.6
2017-05-01T15:36:45.174Z,60.99
2017-05-01T15:37:55.535Z,60.6
2017-05-01T15:39:05.609Z,60.79
2017-05-01T15:40:15.985Z,60.79
2017-05-01T15:41:26.053Z,60.79